Time;durP1;ratioP1;P1;durP2;ratioP2;P2;SDS_P1;SDS_P2;PMS_P1;PMS_P2;Temp;Humidity;BMP_temperature;BMP_pressure;BME280_temperature;BME280_humidity;BME280_pressure;Samples;Min_cycle;Max_cycle;Signal;HPM_P1;HPM_P2
2022/01/20 00:02:19;;;;;;;;;;;;;;;19.64;46.24;100673.16;5029522;28;5195;-69
2022/01/20 00:04:52;;;;;;;;;;;;;;;19.61;46.23;100675.22;5030495;28;4224;-69
2022/01/20 00:26:30;;;;;;;;;;;;;;;19.66;46.01;100682.63;5031467;28;4246;-69
2022/01/20 00:29:00;;;;;;;;;;;;;;;19.71;45.97;100691.47;5030891;28;4212;-68
2022/01/20 00:31:46;;;;;;;;;;;;;;;19.75;46.03;100692.38;5029397;28;4228;-68
2022/01/20 00:34:20;;;;;;;;;;;;;;;19.63;46.24;100691.78;5029796;28;4086;-68
2022/01/20 00:39:31;;;;;;;;;;;;;;;19.75;45.96;100700.28;5029325;28;4111;-69
2022/01/20 00:41:58;;;;;;;;;;;;;;;19.53;46.35;100692.06;5028889;28;4147;-69
2022/01/20 00:44:24;;;;;;;;;;;;;;;19.61;46.19;100698.19;5024140;28;4197;-68
2022/01/20 00:46:50;;;;;;;;;;;;;;;19.74;45.77;100704.53;5044099;28;4193;-69
2022/01/20 00:49:17;;;;;;;;;;;;;;;19.66;46.03;100711.34;5030573;28;4565;-69
2022/01/20 00:51:43;;;;;;;;;;;;;;;19.72;46.04;100713.03;5013000;28;4411;-68
2022/01/20 00:54:17;;;;;;;;;;;;;;;19.65;45.98;100704.13;5030332;28;4229;-68
2022/01/20 00:56:43;;;;;;;;;;;;;;;19.53;46.30;100697.78;5028668;28;4232;-69
2022/01/20 00:59:09;;;;;;;;;;;;;;;19.59;46.28;100703.84;5028183;28;4237;-68
2022/01/20 01:01:36;;;;;;;;;;;;;;;19.58;46.40;100713.81;5028031;28;4601;-69
2022/01/20 01:04:02;;;;;;;;;;;;;;;19.54;46.31;100693.56;5026896;28;4173;-69
2022/01/20 01:06:41;;;;;;;;;;;;;;;19.55;46.04;100718.00;5027305;28;4289;-68
2022/01/20 01:09:09;;;;;;;;;;;;;;;19.53;46.29;100714.28;5026649;28;4129;-69
2022/01/20 01:11:39;;;;;;;;;;;;;;;19.56;46.19;100701.50;5025099;28;4191;-69
2022/01/20 01:14:06;;;;;;;;;;;;;;;19.64;45.93;100702.63;5025874;28;4168;-68
2022/01/20 01:20:00;;;;;;;;;;;;;;;19.52;46.22;100707.81;5024720;28;4695;-68
2022/01/20 01:24:38;;;;;;;;;;;;;;;19.66;45.77;100704.88;5024706;28;4337;-68
2022/01/20 01:27:04;;;;;;;;;;;;;;;19.61;45.90;100726.91;5041878;28;4402;-69
2022/01/20 01:30:05;;;;;;;;;;;;;;;19.57;45.91;100732.47;5016001;28;4099;-68
2022/01/20 01:32:49;;;;;;;;;;;;;;;19.53;45.95;100743.75;5016594;28;4346;-68
2022/01/20 01:35:15;;;;;;;;;;;;;;;19.57;45.94;100741.06;5039028;28;4100;-68
2022/01/20 01:40:09;;;;;;;;;;;;;;;19.63;45.88;100747.13;5025481;28;4247;-68
2022/01/20 01:42:43;;;;;;;;;;;;;;;19.55;46.30;100758.22;5025341;28;4201;-68
2022/01/20 01:45:11;;;;;;;;;;;;;;;19.55;45.91;100749.59;5013434;28;5398;-68
2022/01/20 01:47:37;;;;;;;;;;;;;;;19.43;46.34;100740.41;5010562;28;4601;-68
2022/01/20 01:50:04;;;;;;;;;;;;;;;19.51;45.82;100740.78;5013106;28;4203;-69
2022/01/20 01:52:31;;;;;;;;;;;;;;;19.56;45.98;100748.22;5040931;28;4008;-69
2022/01/20 01:54:57;;;;;;;;;;;;;;;19.44;46.10;100742.59;5014139;28;5224;-68
2022/01/20 01:57:24;;;;;;;;;;;;;;;19.51;46.00;100729.28;5012619;28;4098;-69
2022/01/20 01:59:50;;;;;;;;;;;;;;;19.42;45.96;100728.19;5012631;28;4519;-69
2022/01/20 02:02:36;;;;;;;;;;;;;;;19.62;45.81;100728.38;5024894;28;4269;-68
2022/01/20 02:05:05;;;;;;;;;;;;;;;19.51;45.98;100720.66;5023577;28;4541;-69
2022/01/20 02:18:43;;;;;;;;;;;;;;;19.65;45.74;100732.84;5003722;28;5150;-68
2022/01/20 02:21:28;;;;;;;;;;;;;;;19.52;45.95;100733.66;5025165;28;4775;-68
2022/01/20 02:23:58;;;;;;;;;;;;;;;19.62;45.84;100737.00;5025525;28;5302;-68
2022/01/20 02:26:25;;;;;;;;;;;;;;;19.50;46.00;100739.31;5010189;28;4940;-67
2022/01/20 02:28:51;;;;;;;;;;;;;;;19.58;45.86;100739.69;5000907;28;5284;-68
2022/01/20 02:31:20;;;;;;;;;;;;;;;19.49;46.01;100739.94;5020332;28;4253;-67
2022/01/20 02:33:46;;;;;;;;;;;;;;;19.53;46.04;100729.38;5009098;28;4234;-68
2022/01/20 02:36:16;;;;;;;;;;;;;;;19.47;46.12;100717.63;5040673;28;4336;-68
2022/01/20 02:38:54;;;;;;;;;;;;;;;19.38;46.39;100704.28;5010630;28;4346;-68
2022/01/20 02:46:51;;;;;;;;;;;;;;;19.36;46.21;100727.13;5024815;28;7380;-68
2022/01/20 02:49:17;;;;;;;;;;;;;;;19.39;46.21;100722.97;5029574;28;4177;-68
2022/01/20 02:51:53;;;;;;;;;;;;;;;19.45;46.01;100717.53;5007217;28;4270;-68
2022/01/20 02:54:20;;;;;;;;;;;;;;;19.35;46.23;100703.41;5021908;28;4201;-68
2022/01/20 02:56:46;;;;;;;;;;;;;;;19.38;46.18;100704.28;5032029;28;5249;-68
2022/01/20 02:59:13;;;;;;;;;;;;;;;19.45;46.00;100708.91;5015870;28;4164;-68
2022/01/20 03:01:39;;;;;;;;;;;;;;;19.39;46.23;100695.00;5027475;28;5271;-68
2022/01/20 03:04:06;;;;;;;;;;;;;;;19.42;46.08;100692.97;5013176;28;4189;-68
2022/01/20 03:06:32;;;;;;;;;;;;;;;19.45;46.06;100683.81;5016809;28;4290;-68
2022/01/20 03:08:59;;;;;;;;;;;;;;;19.47;45.90;100683.16;5013158;28;5596;-68
2022/01/20 03:11:25;;;;;;;;;;;;;;;19.41;46.22;100688.63;5014726;28;4260;-68
2022/01/20 03:13:51;;;;;;;;;;;;;;;19.43;46.16;100677.97;5026762;28;4245;-68
2022/01/20 03:16:19;;;;;;;;;;;;;;;19.57;45.87;100675.00;5015970;28;4410;-68
2022/01/20 03:18:45;;;;;;;;;;;;;;;19.43;46.04;100674.34;5042146;28;5569;-68
2022/01/20 03:21:12;;;;;;;;;;;;;;;19.40;46.13;100664.16;5028894;28;5553;-68
2022/01/20 03:23:40;;;;;;;;;;;;;;;19.40;45.98;100661.28;5016702;28;5430;-68
2022/01/20 03:26:06;;;;;;;;;;;;;;;19.55;45.84;100666.31;5027043;28;4427;-68
2022/01/20 03:28:33;;;;;;;;;;;;;;;19.38;45.78;100653.31;5011125;28;5229;-68
2022/01/20 03:30:59;;;;;;;;;;;;;;;19.42;45.86;100647.78;5015105;28;4235;-67
2022/01/20 03:33:26;;;;;;;;;;;;;;;19.45;45.99;100640.00;5027772;28;4298;-68
2022/01/20 03:35:53;;;;;;;;;;;;;;;19.46;45.93;100638.59;5025719;28;4216;-68
2022/01/20 03:38:38;;;;;;;;;;;;;;;19.43;46.01;100639.91;5030097;28;4441;-67
2022/01/20 03:41:04;;;;;;;;;;;;;;;19.40;45.88;100650.56;5015200;28;4079;-68
2022/01/20 03:43:31;;;;;;;;;;;;;;;19.45;45.99;100640.00;5028035;28;5215;-68
2022/01/20 03:45:59;;;;;;;;;;;;;;;19.37;45.92;100639.59;5011218;28;4346;-68
2022/01/20 03:48:27;;;;;;;;;;;;;;;19.27;46.37;100647.75;5017788;28;4266;-68
2022/01/20 03:51:00;;;;;;;;;;;;;;;19.29;46.14;100633.47;5008141;28;5669;-68
2022/01/20 03:53:30;;;;;;;;;;;;;;;19.42;45.88;100629.78;5027358;28;4169;-68
2022/01/20 03:55:56;;;;;;;;;;;;;;;19.39;45.82;100631.81;5024735;28;5240;-68
2022/01/20 03:58:23;;;;;;;;;;;;;;;19.42;45.86;100626.91;5014554;28;4160;-68
2022/01/20 04:00:50;;;;;;;;;;;;;;;19.36;45.98;100615.91;5041333;28;4246;-68
2022/01/20 04:03:25;;;;;;;;;;;;;;;19.39;45.77;100625.34;5013457;28;4457;-67
2022/01/20 04:05:59;;;;;;;;;;;;;;;19.27;46.30;100619.03;5042597;28;4558;-67
2022/01/20 04:08:51;;;;;;;;;;;;;;;19.20;46.19;100627.34;5024800;28;4241;-68
2022/01/20 04:11:23;;;;;;;;;;;;;;;19.27;46.33;100636.28;5030093;28;4480;-67
2022/01/20 04:13:49;;;;;;;;;;;;;;;19.36;45.86;100638.88;5026398;28;4228;-67
2022/01/20 04:16:38;;;;;;;;;;;;;;;19.41;45.97;100628.31;5018899;28;4253;-67
2022/01/20 04:19:08;;;;;;;;;;;;;;;19.35;46.11;100637.38;5026724;28;4321;-68
2022/01/20 04:21:35;;;;;;;;;;;;;;;19.32;46.16;100621.44;5026985;28;4224;-67
2022/01/20 04:24:02;;;;;;;;;;;;;;;19.36;46.09;100627.38;5012210;28;4223;-68
2022/01/20 04:26:29;;;;;;;;;;;;;;;19.41;45.78;100636.94;5008977;28;4324;-67
2022/01/20 04:28:56;;;;;;;;;;;;;;;19.46;45.56;100687.41;5015075;28;4220;-67
2022/01/20 04:31:27;;;;;;;;;;;;;;;19.40;45.63;100710.09;5013671;28;4434;-68
2022/01/20 04:33:56;;;;;;;;;;;;;;;19.46;45.42;100708.25;5026750;28;5257;-68
2022/01/20 04:36:26;;;;;;;;;;;;;;;19.43;45.47;100705.94;5027226;28;4915;-67
2022/01/20 04:38:53;;;;;;;;;;;;;;;19.38;45.71;100701.41;5044010;28;5446;-67
2022/01/20 04:41:20;;;;;;;;;;;;;;;19.40;45.66;100728.06;5026681;28;4250;-67
2022/01/20 04:43:47;;;;;;;;;;;;;;;19.39;45.74;100717.97;5016103;28;4237;-67
2022/01/20 04:59:40;;;;;;;;;;;;;;;19.34;45.64;100687.56;5012023;28;4583;-67
2022/01/20 05:02:06;;;;;;;;;;;;;;;19.36;45.62;100687.69;5027064;28;4276;-67
2022/01/20 05:04:46;;;;;;;;;;;;;;;19.40;45.64;100690.75;5011616;28;5501;-68
2022/01/20 05:07:27;;;;;;;;;;;;;;;19.47;45.44;100688.91;5012609;28;4133;-68
2022/01/20 05:09:56;;;;;;;;;;;;;;;19.49;45.47;100685.38;5028336;28;4192;-68
2022/01/20 05:12:48;;;;;;;;;;;;;;;19.40;45.54;100690.75;5011089;28;4065;-68
2022/01/20 05:15:12;;;;;;;;;;;;;;;19.41;45.66;100675.00;5009842;28;4650;-67
2022/01/20 05:17:38;;;;;;;;;;;;;;;19.36;45.60;100690.56;5011947;28;4227;-67
2022/01/20 05:20:06;;;;;;;;;;;;;;;19.40;45.65;100690.00;5015813;28;4545;-67
2022/01/20 05:22:32;;;;;;;;;;;;;;;19.45;45.38;100694.56;5027614;28;4201;-68
2022/01/20 05:25:03;;;;;;;;;;;;;;;19.43;45.13;100691.59;5013766;28;4023;-68
2022/01/20 05:27:30;;;;;;;;;;;;;;;19.39;45.45;100665.53;5011228;28;4240;-68
2022/01/20 05:29:56;;;;;;;;;;;;;;;19.44;45.34;100667.22;5042637;28;5696;-68
2022/01/20 05:32:24;;;;;;;;;;;;;;;19.39;45.38;100666.28;5039482;28;4257;-68
2022/01/20 05:34:51;;;;;;;;;;;;;;;19.29;45.76;100662.19;5015643;28;4304;-68
2022/01/20 05:37:17;;;;;;;;;;;;;;;19.36;45.62;100675.47;5044587;28;5500;-68
2022/01/20 05:39:44;;;;;;;;;;;;;;;19.27;45.67;100682.19;5026213;28;5624;-68
2022/01/20 05:42:16;;;;;;;;;;;;;;;19.34;45.71;100681.09;5041638;28;4249;-68
2022/01/20 05:44:51;;;;;;;;;;;;;;;19.39;45.53;100679.91;5018100;28;5333;-68
2022/01/20 05:47:26;;;;;;;;;;;;;;;19.41;45.51;100691.47;5041780;28;4271;-67
2022/01/20 05:50:11;;;;;;;;;;;;;;;19.33;45.76;100702.56;5026266;28;5312;-67
2022/01/20 05:52:41;;;;;;;;;;;;;;;19.35;45.56;100699.81;5020236;28;4154;-68
2022/01/20 05:55:13;;;;;;;;;;;;;;;19.46;44.86;100707.50;5003343;28;4208;-67
2022/01/20 05:57:40;;;;;;;;;;;;;;;19.44;45.30;100698.81;5006957;28;5127;-68
2022/01/20 06:00:08;;;;;;;;;;;;;;;19.37;45.53;100702.78;5011033;28;4326;-67
2022/01/20 06:05:29;;;;;;;;;;;;;;;19.58;45.56;100716.69;5012719;28;4121;-71
2022/01/20 06:07:56;;;;;;;;;;;;;;;19.55;45.45;100718.00;5028498;28;4366;-71
2022/01/20 06:10:23;;;;;;;;;;;;;;;19.74;45.17;100739.72;5020258;28;4588;-70
2022/01/20 06:12:49;;;;;;;;;;;;;;;19.56;45.42;100739.59;5025286;28;4154;-71
2022/01/20 06:15:16;;;;;;;;;;;;;;;19.55;45.23;100751.72;5029652;28;4473;-71
2022/01/20 06:17:42;;;;;;;;;;;;;;;19.65;45.23;100749.31;5043026;28;4414;-72
2022/01/20 06:20:14;;;;;;;;;;;;;;;19.66;45.19;100745.81;5013351;28;4217;-72
2022/01/20 06:22:41;;;;;;;;;;;;;;;19.48;45.19;100770.06;5042259;28;4606;-71
2022/01/20 06:25:08;;;;;;;;;;;;;;;19.40;44.72;100759.66;5043012;28;3987;-71
2022/01/20 06:27:35;;;;;;;;;;;;;;;19.49;45.24;100763.66;5027649;28;4155;-70
2022/01/20 06:30:03;;;;;;;;;;;;;;;19.45;45.57;100766.34;5034283;28;4153;-72
2022/01/20 06:32:29;;;;;;;;;;;;;;;19.55;45.10;100769.69;5037977;28;4055;-71
2022/01/20 06:34:55;;;;;;;;;;;;;;;19.55;45.08;100774.72;5012430;28;4163;-74
2022/01/20 06:37:22;;;;;;;;;;;;;;;19.45;45.35;100772.09;5034560;28;4194;-71
2022/01/20 06:39:48;;;;;;;;;;;;;;;19.54;45.06;100785.47;5018163;28;4207;-71
2022/01/20 06:42:15;;;;;;;;;;;;;;;19.57;45.06;100787.03;5022927;28;4142;-72
2022/01/20 06:44:42;;;;;;;;;;;;;;;19.50;45.07;100801.75;5016851;28;4053;-67
2022/01/20 06:47:09;;;;;;;;;;;;;;;19.50;45.37;100799.63;5017676;28;4139;-70
2022/01/20 06:49:35;;;;;;;;;;;;;;;19.43;45.63;100809.31;5026410;28;4123;-71
2022/01/20 06:52:06;;;;;;;;;;;;;;;19.49;45.24;100829.69;5010705;28;4046;-71
2022/01/20 06:54:34;;;;;;;;;;;;;;;19.58;44.97;100825.84;5003785;28;4043;-70
2022/01/20 06:57:03;;;;;;;;;;;;;;;19.44;45.92;100833.75;5016847;28;4609;-68
2022/01/20 06:59:29;;;;;;;;;;;;;;;18.86;43.47;100846.63;5012504;28;5347;-69
2022/01/20 07:01:56;;;;;;;;;;;;;;;18.58;45.08;100847.31;5033422;28;4219;-69
2022/01/20 07:04:32;;;;;;;;;;;;;;;18.67;46.83;100848.50;5013691;28;5695;-69
2022/01/20 07:07:00;;;;;;;;;;;;;;;18.81;46.60;100852.13;5049746;28;4105;-69
2022/01/20 07:09:41;;;;;;;;;;;;;;;18.87;46.74;100859.56;5034099;28;4203;-69
2022/01/20 07:12:16;;;;;;;;;;;;;;;18.98;45.34;100867.31;5018631;28;4551;-69
2022/01/20 07:14:43;;;;;;;;;;;;;;;18.93;44.16;100868.50;5005224;28;5415;-68
2022/01/20 07:17:10;;;;;;;;;;;;;;;18.87;43.02;100876.78;5015277;28;5342;-70
2022/01/20 07:19:40;;;;;;;;;;;;;;;18.84;41.63;100887.41;5006951;28;4276;-70
2022/01/20 07:22:08;;;;;;;;;;;;;;;18.76;41.38;100904.91;5046006;28;5653;-70
2022/01/20 07:24:35;;;;;;;;;;;;;;;18.78;39.93;100905.06;5030100;28;4677;-70
2022/01/20 07:27:11;;;;;;;;;;;;;;;18.78;39.00;100893.59;5018351;28;7118;-70
2022/01/20 07:29:37;;;;;;;;;;;;;;;18.72;39.25;100912.56;5014216;28;4237;-68
2022/01/20 07:32:06;;;;;;;;;;;;;;;18.72;38.66;100924.78;5015162;28;4075;-69
2022/01/20 07:34:33;;;;;;;;;;;;;;;18.70;38.00;100918.94;5010069;28;5540;-70
2022/01/20 07:37:01;;;;;;;;;;;;;;;18.73;37.94;100931.25;5020062;28;5681;-71
2022/01/20 07:39:27;;;;;;;;;;;;;;;18.75;37.01;100939.97;5024010;28;4132;-70
2022/01/20 07:41:54;;;;;;;;;;;;;;;18.85;37.14;100937.66;5026371;28;4222;-69
2022/01/20 07:44:39;;;;;;;;;;;;;;;18.72;36.00;100947.72;5032672;28;5722;-70
2022/01/20 07:47:13;;;;;;;;;;;;;;;18.70;36.16;100949.75;5024964;28;5442;-73
2022/01/20 07:49:39;;;;;;;;;;;;;;;18.81;36.27;100938.22;5035228;28;5634;-71
2022/01/20 07:52:06;;;;;;;;;;;;;;;18.87;35.73;100931.31;5050267;28;5706;-72
2022/01/20 07:54:32;;;;;;;;;;;;;;;18.78;35.85;100936.63;5018570;28;4177;-72
2022/01/20 07:56:59;;;;;;;;;;;;;;;18.87;34.70;100931.31;5020704;28;5531;-70
2022/01/20 07:59:26;;;;;;;;;;;;;;;18.79;36.51;100935.22;5022874;28;4331;-68
2022/01/20 08:01:52;;;;;;;;;;;;;;;18.75;35.79;100946.44;5047485;28;5681;-67
2022/01/20 08:04:19;;;;;;;;;;;;;;;18.84;36.56;100942.66;5019026;28;4720;-67
2022/01/20 08:06:45;;;;;;;;;;;;;;;18.86;37.29;100949.91;5021563;28;5758;-67
2022/01/20 08:09:16;;;;;;;;;;;;;;;18.98;38.43;100959.91;5015055;28;5680;-72
2022/01/20 08:12:08;;;;;;;;;;;;;;;19.02;38.34;100962.25;5019830;28;5591;-73
2022/01/20 08:14:48;;;;;;;;;;;;;;;19.02;39.17;100973.72;5046994;28;5554;-73
2022/01/20 08:17:22;;;;;;;;;;;;;;;19.03;39.11;100972.34;5033462;28;5332;-72
2022/01/20 08:19:52;;;;;;;;;;;;;;;19.10;39.65;100974.16;5029199;28;5662;-72
2022/01/20 08:22:18;;;;;;;;;;;;;;;19.16;39.77;100983.09;5021064;28;5529;-72
2022/01/20 08:25:05;;;;;;;;;;;;;;;19.11;40.10;100981.41;5013552;28;5670;-72
2022/01/20 08:27:32;;;;;;;;;;;;;;;19.10;40.25;100982.75;5015792;28;6013;-72
2022/01/20 08:29:58;;;;;;;;;;;;;;;19.04;40.43;100982.44;5014040;28;5471;-72
2022/01/20 08:32:24;;;;;;;;;;;;;;;19.10;40.73;100985.63;5014007;28;4260;-72
2022/01/20 08:35:11;;;;;;;;;;;;;;;19.06;41.26;100988.31;5014982;28;4027;-73
2022/01/20 08:37:49;;;;;;;;;;;;;;;18.96;41.48;101004.97;5027802;28;4523;-72
2022/01/20 08:40:18;;;;;;;;;;;;;;;18.91;41.80;100986.03;5014408;28;4045;-72
2022/01/20 08:42:45;;;;;;;;;;;;;;;18.91;41.87;101003.25;5028144;28;4251;-72
2022/01/20 08:45:11;;;;;;;;;;;;;;;18.98;41.63;101002.94;5021376;28;3998;-72
2022/01/20 08:47:38;;;;;;;;;;;;;;;18.98;41.54;101013.69;5015030;28;4734;-71
2022/01/20 08:50:05;;;;;;;;;;;;;;;19.03;41.35;101003.91;5014246;28;4067;-73
2022/01/20 08:52:31;;;;;;;;;;;;;;;19.08;41.97;101014.25;5028058;28;5704;-72
2022/01/20 08:54:58;;;;;;;;;;;;;;;18.98;42.24;101020.16;5013241;28;5624;-74
2022/01/20 08:57:56;;;;;;;;;;;;;;;18.94;42.15;101008.47;5012827;28;4553;-72
2022/01/20 09:00:27;;;;;;;;;;;;;;;19.00;42.42;101014.53;5018555;28;4589;-74
2022/01/20 09:02:58;;;;;;;;;;;;;;;19.11;42.06;101010.09;5010536;28;4321;-73
2022/01/20 09:05:25;;;;;;;;;;;;;;;19.10;42.46;101008.59;5014510;28;4263;-73
2022/01/20 09:08:10;;;;;;;;;;;;;;;19.02;42.68;101011.03;5014132;28;4985;-74
2022/01/20 09:10:38;;;;;;;;;;;;;;;19.02;42.82;101003.16;5019314;28;4044;-73
2022/01/20 09:15:56;;;;;;;;;;;;;;;19.17;42.78;101015.41;5016217;28;5637;-73
2022/01/20 09:18:32;;;;;;;;;;;;;;;19.13;42.77;101013.09;5045415;28;4254;-73
2022/01/20 09:20:59;;;;;;;;;;;;;;;19.23;42.84;101007.88;5012184;28;5591;-73
2022/01/20 09:23:25;;;;;;;;;;;;;;;19.19;42.93;101009.78;5012866;28;4252;-74
2022/01/20 09:25:52;;;;;;;;;;;;;;;19.22;43.04;101025.75;5012509;28;5691;-75
2022/01/20 09:28:19;;;;;;;;;;;;;;;19.20;42.94;101017.75;5012374;28;4749;-73
2022/01/20 09:30:46;;;;;;;;;;;;;;;19.24;42.89;101022.97;5043802;28;5560;-74
2022/01/20 09:33:24;;;;;;;;;;;;;;;19.27;43.08;101020.97;5027615;28;4276;-72
2022/01/20 09:35:50;;;;;;;;;;;;;;;19.30;42.89;101034.78;5041619;28;5740;-73
2022/01/20 09:38:17;;;;;;;;;;;;;;;19.29;42.97;101023.94;5013760;28;5192;-70
2022/01/20 09:40:43;;;;;;;;;;;;;;;19.35;43.26;101022.13;5019101;28;4711;-72
2022/01/20 09:43:16;;;;;;;;;;;;;;;19.22;42.90;101023.63;5031910;28;5553;-70
2022/01/20 09:45:48;;;;;;;;;;;;;;;19.18;43.11;101016.91;5030895;28;4663;-72
2022/01/20 09:48:15;;;;;;;;;;;;;;;19.20;42.79;101023.50;5044390;28;5599;-72
2022/01/20 09:51:01;;;;;;;;;;;;;;;19.32;42.98;101025.53;5014513;28;5419;-73
2022/01/20 09:54:04;;;;;;;;;;;;;;;19.32;43.09;101040.63;5008271;28;5542;-73
2022/01/20 09:56:37;;;;;;;;;;;;;;;19.21;43.35;101041.47;5013044;28;4177;-74
2022/01/20 09:59:04;;;;;;;;;;;;;;;19.27;43.21;101036.06;5013879;28;5288;-73
2022/01/20 10:01:33;;;;;;;;;;;;;;;19.29;43.29;101046.91;5013733;28;4183;-72
2022/01/20 10:04:00;;;;;;;;;;;;;;;19.29;43.14;101023.94;5030878;28;5591;-73
2022/01/20 10:06:26;;;;;;;;;;;;;;;19.36;43.07;101049.47;5033377;28;4241;-72
2022/01/20 10:09:08;;;;;;;;;;;;;;;19.27;43.69;101046.81;5025371;28;4222;-72
2022/01/20 10:12:03;;;;;;;;;;;;;;;19.14;44.03;101063.34;5019941;28;6688;-69
2022/01/20 10:14:46;;;;;;;;;;;;;;;19.17;43.87;101059.25;5023715;28;4846;-67
2022/01/20 10:17:31;;;;;;;;;;;;;;;18.97;43.32;101070.34;5011110;28;4257;-65
2022/01/20 10:20:00;;;;;;;;;;;;;;;18.59;43.86;101058.16;5027889;28;5727;-71
2022/01/20 10:22:31;;;;;;;;;;;;;;;18.58;43.80;101065.28;5014777;28;5768;-70
2022/01/20 10:25:14;;;;;;;;;;;;;;;18.48;44.09;101055.34;5024215;28;4515;-72
2022/01/20 10:27:57;;;;;;;;;;;;;;;18.68;43.95;101067.22;5018324;28;4934;-70
2022/01/20 10:30:25;;;;;;;;;;;;;;;18.74;42.73;101059.72;5018287;28;4159;-71
2022/01/20 10:32:55;;;;;;;;;;;;;;;18.76;42.30;101056.97;5014739;28;4645;-71
2022/01/20 10:35:25;;;;;;;;;;;;;;;18.72;42.68;101053.13;5026871;28;5547;-72
2022/01/20 10:38:16;;;;;;;;;;;;;;;18.80;43.30;101057.19;5016019;28;5484;-70
2022/01/20 10:40:56;;;;;;;;;;;;;;;18.80;42.85;101062.94;5016016;28;4683;-69
2022/01/20 10:43:26;;;;;;;;;;;;;;;18.90;43.21;101064.88;5032016;28;4554;-71
2022/01/20 10:46:08;;;;;;;;;;;;;;;18.54;43.20;101067.16;5014401;28;6188;-71
2022/01/20 10:48:35;;;;;;;;;;;;;;;18.56;43.20;101068.03;5018865;28;5383;-68
2022/01/20 10:51:13;;;;;;;;;;;;;;;18.56;42.89;101067.28;5016555;28;4390;-68
2022/01/20 10:53:41;;;;;;;;;;;;;;;18.79;43.03;101067.19;5019611;28;4627;-69
2022/01/20 10:56:08;;;;;;;;;;;;;;;18.34;43.84;101076.09;5019237;28;4270;-71
2022/01/20 10:58:34;;;;;;;;;;;;;;;18.60;42.80;101076.13;5016896;28;4767;-69
2022/01/20 11:01:04;;;;;;;;;;;;;;;18.66;43.14;101067.13;5018618;28;4590;-70
2022/01/20 11:03:35;;;;;;;;;;;;;;;18.78;42.95;101073.56;5005732;28;4232;-67
2022/01/20 11:06:01;;;;;;;;;;;;;;;18.96;42.76;101053.75;5019890;28;4744;-68
2022/01/20 11:08:52;;;;;;;;;;;;;;;18.66;43.35;101059.25;5019045;28;4582;-72
2022/01/20 11:11:26;;;;;;;;;;;;;;;18.65;43.21;101062.78;5013370;28;5401;-69
2022/01/20 11:14:26;;;;;;;;;;;;;;;18.74;43.40;101042.50;5031749;28;4402;-67
2022/01/20 11:16:52;;;;;;;;;;;;;;;18.95;43.65;101050.13;5022090;28;5709;-69
2022/01/20 11:19:19;;;;;;;;;;;;;;;18.86;43.33;101045.34;5020599;28;4199;-68
2022/01/20 11:21:46;;;;;;;;;;;;;;;18.71;44.02;101048.75;5049421;28;5518;-67
2022/01/20 11:24:30;;;;;;;;;;;;;;;18.84;43.28;101040.22;5014217;28;4171;-67
2022/01/20 11:27:07;;;;;;;;;;;;;;;18.60;44.33;101044.59;5035308;28;5544;-67
2022/01/20 11:29:44;;;;;;;;;;;;;;;18.61;43.74;101034.59;5043592;28;5199;-74
2022/01/20 11:32:35;;;;;;;;;;;;;;;18.53;43.16;101037.00;5025389;28;4363;-71
2022/01/20 11:35:21;;;;;;;;;;;;;;;18.67;43.90;101032.06;5052662;28;4110;-69
2022/01/20 11:37:55;;;;;;;;;;;;;;;18.63;43.89;101023.22;5031643;28;5894;-72
2022/01/20 11:40:21;;;;;;;;;;;;;;;18.83;43.86;101033.00;5038026;28;4143;-74
2022/01/20 11:43:04;;;;;;;;;;;;;;;19.22;44.12;101028.63;5035471;28;4336;-72
2022/01/20 11:45:34;;;;;;;;;;;;;;;18.93;43.82;101035.69;5030859;28;5308;-72
2022/01/20 11:48:19;;;;;;;;;;;;;;;18.97;43.71;101043.78;5037187;28;4284;-67
2022/01/20 11:50:46;;;;;;;;;;;;;;;18.73;44.37;101052.47;5032686;28;4294;-72
2022/01/20 11:53:14;;;;;;;;;;;;;;;18.94;43.83;101045.03;5035793;28;4442;-71
2022/01/20 11:55:50;;;;;;;;;;;;;;;18.82;44.17;101054.44;5034979;28;4394;-71
2022/01/20 11:58:19;;;;;;;;;;;;;;;18.91;44.13;101044.16;5005319;28;4044;-70
2022/01/20 12:01:04;;;;;;;;;;;;;;;18.69;45.08;101046.53;5025400;28;5046;-69
2022/01/20 12:03:31;;;;;;;;;;;;;;;18.89;43.95;101046.19;5037516;28;4079;-68
2022/01/20 12:06:07;;;;;;;;;;;;;;;18.89;44.52;101066.28;5036185;28;5180;-72
2022/01/20 12:08:56;;;;;;;;;;;;;;;18.91;44.21;101054.91;5037941;28;4787;-70
2022/01/20 12:11:32;;;;;;;;;;;;;;;19.02;44.68;101068.44;5036299;28;4189;-70
2022/01/20 12:13:59;;;;;;;;;;;;;;;18.94;44.56;101059.38;5037301;28;5646;-69
2022/01/20 12:16:25;;;;;;;;;;;;;;;18.99;44.71;101061.84;5034861;28;4735;-71
2022/01/20 12:18:55;;;;;;;;;;;;;;;19.11;44.21;101056.03;5037805;28;5766;-71
2022/01/20 12:21:21;;;;;;;;;;;;;;;18.92;44.58;101062.13;5037351;28;4779;-71
2022/01/20 12:23:48;;;;;;;;;;;;;;;19.03;45.22;101062.06;5036024;28;5629;-72
2022/01/20 12:26:14;;;;;;;;;;;;;;;19.10;44.29;101071.00;5034409;28;5614;-69
2022/01/20 12:28:40;;;;;;;;;;;;;;;19.08;43.47;101073.75;5037320;28;4246;-70
2022/01/20 12:31:09;;;;;;;;;;;;;;;19.12;44.20;101062.50;5054615;28;4072;-70
2022/01/20 12:33:37;;;;;;;;;;;;;;;18.90;44.09;101062.78;5038412;28;5401;-70
2022/01/20 12:36:04;;;;;;;;;;;;;;;19.09;44.53;101073.13;5037214;28;5688;-71
2022/01/20 12:38:34;;;;;;;;;;;;;;;19.21;44.01;101065.19;5035644;28;5295;-71
2022/01/20 12:41:08;;;;;;;;;;;;;;;19.01;43.14;101064.06;5035517;28;5257;-71
2022/01/20 12:43:35;;;;;;;;;;;;;;;18.98;44.88;101059.59;5036468;28;4031;-71
2022/01/20 12:46:01;;;;;;;;;;;;;;;19.15;44.75;101044.78;5034790;28;4619;-72
2022/01/20 12:48:28;;;;;;;;;;;;;;;19.26;44.64;101040.31;5034382;28;4066;-70
2022/01/20 12:51:05;;;;;;;;;;;;;;;19.19;44.38;101041.34;5036690;28;4620;-69
2022/01/20 12:53:35;;;;;;;;;;;;;;;19.18;43.87;101034.13;5035521;28;4137;-71
2022/01/20 12:56:02;;;;;;;;;;;;;;;19.02;44.45;101039.75;5037039;28;4678;-74
2022/01/20 12:58:28;;;;;;;;;;;;;;;19.05;45.52;101035.59;5036416;28;5430;-71
2022/01/20 13:01:02;;;;;;;;;;;;;;;19.08;44.58;101040.09;5025817;28;4598;-69
2022/01/20 13:03:32;;;;;;;;;;;;;;;19.23;45.30;101032.97;5032500;28;4033;-68
2022/01/20 13:05:59;;;;;;;;;;;;;;;19.22;44.75;101042.97;5035212;28;3959;-72
2022/01/20 13:08:31;;;;;;;;;;;;;;;19.22;45.37;101037.25;5023994;28;4095;-69
2022/01/20 13:11:04;;;;;;;;;;;;;;;19.06;44.98;101028.50;5035009;28;4200;-67
2022/01/20 13:13:31;;;;;;;;;;;;;;;18.73;45.35;101031.66;5033522;28;4182;-70
2022/01/20 13:15:57;;;;;;;;;;;;;;;18.92;45.10;101027.69;5035451;28;5732;-66
2022/01/20 13:18:23;;;;;;;;;;;;;;;19.14;43.83;101023.16;5034680;28;4530;-65
2022/01/20 13:20:52;;;;;;;;;;;;;;;18.80;44.46;101022.03;5034244;28;4218;-64
2022/01/20 13:25:47;;;;;;;;;;;;;;;18.99;44.64;101055.38;5033500;28;4118;-64
2022/01/20 13:28:14;;;;;;;;;;;;;;;18.75;44.64;101040.38;5032571;28;4175;-64
2022/01/20 13:30:41;;;;;;;;;;;;;;;19.13;44.31;101041.03;5017181;28;5295;-64
2022/01/20 13:33:20;;;;;;;;;;;;;;;19.08;44.48;101045.81;5034049;28;4493;-67
2022/01/20 13:35:47;;;;;;;;;;;;;;;18.92;44.04;101039.16;5033262;28;4187;-64
2022/01/20 13:38:14;;;;;;;;;;;;;;;19.14;44.07;101037.53;5029545;28;4261;-64
2022/01/20 13:40:43;;;;;;;;;;;;;;;18.99;44.96;101035.28;5034881;28;4550;-64
2022/01/20 13:46:02;;;;;;;;;;;;;;;19.13;45.61;101024.56;5032290;28;6197;-65
2022/01/20 13:48:30;;;;;;;;;;;;;;;18.91;46.17;101026.22;5016885;28;6471;-70
2022/01/20 13:50:56;;;;;;;;;;;;;;;19.43;43.94;101021.81;5036007;28;4197;-72
2022/01/20 13:53:26;;;;;;;;;;;;;;;19.29;44.58;101021.06;5038010;28;4170;-72
2022/01/20 13:55:53;;;;;;;;;;;;;;;19.11;44.84;101021.59;5026113;28;5679;-72
2022/01/20 13:58:29;;;;;;;;;;;;;;;19.12;44.01;101011.56;5043453;28;4529;-73
2022/01/20 14:00:55;;;;;;;;;;;;;;;19.20;44.69;101017.75;5036194;28;4040;-69
2022/01/20 14:03:22;;;;;;;;;;;;;;;19.14;44.09;101014.56;5033974;28;4587;-68
2022/01/20 14:05:50;;;;;;;;;;;;;;;19.00;45.67;101010.94;5040507;28;3974;-67
2022/01/20 14:08:16;;;;;;;;;;;;;;;19.09;44.88;101030.09;5037832;28;4027;-68
2022/01/20 14:10:43;;;;;;;;;;;;;;;19.22;43.57;101026.50;5028132;28;5613;-64
2022/01/20 14:13:09;;;;;;;;;;;;;;;18.96;45.22;101025.06;5030173;28;4607;-67
2022/01/20 14:15:35;;;;;;;;;;;;;;;19.07;44.42;101012.75;5032076;28;4253;-67
2022/01/20 14:18:02;;;;;;;;;;;;;;;18.80;44.89;101027.78;5031645;28;4258;-67